createdAt,value
2019-05-26T00:00:29.216Z,12.11
2019-05-26T00:00:59.293Z,12.09
2019-05-26T00:01:30.203Z,12.09
2019-05-26T00:01:59.274Z,12.11
2019-05-26T00:02:29.211Z,12.11
2019-05-26T00:02:59.337Z,12.09
2019-05-26T00:03:29.222Z,12.09
2019-05-26T00:03:59.277Z,12.09
2019-05-26T00:04:32.264Z,12.12
2019-05-26T00:04:59.289Z,12.11
2019-05-26T00:05:29.219Z,12.12
2019-05-26T00:05:59.286Z,12.11
2019-05-26T00:06:29.219Z,12.12
2019-05-26T00:06:59.296Z,12.12
2019-05-26T00:07:30.801Z,12.11
2019-05-26T00:07:59.283Z,12.15
2019-05-26T00:08:29.218Z,12.12
2019-05-26T00:08:59.284Z,12.15
2019-05-26T00:09:29.341Z,12.12
2019-05-26T00:09:59.301Z,12.12
2019-05-26T00:10:29.228Z,12.15
2019-05-26T00:10:59.279Z,12.12
2019-05-26T00:11:29.240Z,12.14
2019-05-26T00:12:00.238Z,12.12
2019-05-26T00:12:29.219Z,12.12
2019-05-26T00:12:59.284Z,12.12
2019-05-26T00:13:29.261Z,12.12
2019-05-26T00:13:59.285Z,12.12
2019-05-26T00:14:29.243Z,12.14
2019-05-26T00:15:02.386Z,12.12
2019-05-26T00:15:29.218Z,12.09
2019-05-26T00:15:59.286Z,12.08
2019-05-26T00:16:29.212Z,12.08
2019-05-26T00:16:59.275Z,12.04
2019-05-26T00:17:29.215Z,12.06
2019-05-26T00:17:59.314Z,12.05
2019-05-26T00:18:33.005Z,12.05
2019-05-26T00:18:59.286Z,12.05
2019-05-26T00:19:29.225Z,12.05
2019-05-26T00:19:59.374Z,12.05
2019-05-26T00:20:29.264Z,12.05
2019-05-26T00:20:59.286Z,12.06
2019-05-26T00:21:29.224Z,12.06
2019-05-26T00:21:59.349Z,12.04
2019-05-26T00:22:30.084Z,12.04
2019-05-26T00:22:59.285Z,12.05
2019-05-26T00:23:29.230Z,12.05
2019-05-26T00:23:59.328Z,12.04
2019-05-26T00:24:29.221Z,12.05
2019-05-26T00:24:59.283Z,12.05
2019-05-26T00:25:32.240Z,12.05
2019-05-26T00:25:59.288Z,12.04
2019-05-26T00:26:29.222Z,12.04
2019-05-26T00:26:59.283Z,12.04
2019-05-26T00:27:29.231Z,12.02
2019-05-26T00:27:59.293Z,12.01
2019-05-26T00:28:29.223Z,11.97
2019-05-26T00:28:59.298Z,11.98
2019-05-26T00:29:29.223Z,11.93
2019-05-26T00:29:59.288Z,11.95
2019-05-26T00:30:29.218Z,11.91
2019-05-26T00:30:59.334Z,11.90
2019-05-26T00:31:29.224Z,11.88
2019-05-26T00:31:59.278Z,11.87
2019-05-26T00:32:29.220Z,11.84
2019-05-26T00:33:00.197Z,11.85
2019-05-26T00:33:29.226Z,11.87
2019-05-26T00:33:59.282Z,11.83
2019-05-26T00:34:29.225Z,11.83
2019-05-26T00:34:59.297Z,11.81
2019-05-26T00:35:29.229Z,11.84
2019-05-26T00:36:02.314Z,11.81
2019-05-26T00:36:29.224Z,11.81
2019-05-26T00:36:59.286Z,11.83
2019-05-26T00:37:29.225Z,11.80
2019-05-26T00:37:59.284Z,11.81
2019-05-26T00:38:29.260Z,11.80
2019-05-26T00:38:59.294Z,11.77
2019-05-26T00:39:29.239Z,11.78
2019-05-26T00:39:59.285Z,11.77
2019-05-26T00:40:29.276Z,11.76
2019-05-26T00:40:59.290Z,11.76
2019-05-26T00:41:29.256Z,11.73
2019-05-26T00:41:59.289Z,11.74
2019-05-26T00:42:29.224Z,11.70
2019-05-26T00:42:59.304Z,11.67
2019-05-26T00:43:30.155Z,11.70
2019-05-26T00:43:59.290Z,11.66
2019-05-26T00:44:29.226Z,11.64
2019-05-26T00:44:59.306Z,11.63
2019-05-26T00:45:29.230Z,11.61
2019-05-26T00:45:59.292Z,11.63
2019-05-26T00:46:32.245Z,11.63
2019-05-26T00:46:59.363Z,11.64
2019-05-26T00:47:29.227Z,11.64
2019-05-26T00:47:59.289Z,11.63
2019-05-26T00:48:29.222Z,11.64
2019-05-26T00:48:59.346Z,11.61
2019-05-26T00:49:29.224Z,11.61
2019-05-26T00:49:59.294Z,11.61
2019-05-26T00:50:29.232Z,11.63
2019-05-26T00:50:59.292Z,11.63
2019-05-26T00:51:29.232Z,11.61
2019-05-26T00:51:59.334Z,11.61
2019-05-26T00:52:29.234Z,11.61
2019-05-26T00:52:59.290Z,11.60
2019-05-26T00:53:29.230Z,11.61
2019-05-26T00:54:00.292Z,11.60
2019-05-26T00:54:29.232Z,11.58
2019-05-26T00:54:59.311Z,11.57
2019-05-26T00:55:29.239Z,11.56
2019-05-26T00:55:59.292Z,11.54
2019-05-26T00:56:29.239Z,11.51
2019-05-26T00:57:02.329Z,11.50
2019-05-26T00:57:29.229Z,11.47
2019-05-26T00:57:59.295Z,11.46
2019-05-26T00:58:29.239Z,11.45
2019-05-26T00:58:59.296Z,11.40
2019-05-26T00:59:29.231Z,11.37
2019-05-26T00:59:59.293Z,11.39
2019-05-26T01:00:29.232Z,11.36
2019-05-26T01:00:59.294Z,11.37
2019-05-26T01:01:29.235Z,11.36
2019-05-26T01:01:59.300Z,11.30
2019-05-26T01:02:29.250Z,11.29
2019-05-26T01:02:59.298Z,11.28
2019-05-26T01:03:29.297Z,11.28
2019-05-26T01:03:59.303Z,11.26
2019-05-26T01:04:30.268Z,11.22
2019-05-26T01:04:59.298Z,11.23
2019-05-26T01:05:29.273Z,11.21
2019-05-26T01:05:59.303Z,11.22
2019-05-26T01:06:29.326Z,11.18
2019-05-26T01:06:59.296Z,11.19
2019-05-26T01:07:32.255Z,11.17
2019-05-26T01:08:06.070Z,11.17
2019-05-26T01:08:29.241Z,11.14
2019-05-26T01:08:59.298Z,11.15
2019-05-26T01:09:29.234Z,11.12
2019-05-26T01:09:59.315Z,11.14
2019-05-26T01:10:29.239Z,11.12
2019-05-26T01:11:01.358Z,11.11
2019-05-26T01:11:29.239Z,11.08
2019-05-26T01:11:59.421Z,11.09
2019-05-26T01:12:29.281Z,11.09
2019-05-26T01:12:59.317Z,11.07
2019-05-26T01:13:29.239Z,11.07
2019-05-26T01:13:59.390Z,11.05
2019-05-26T01:14:29.241Z,11.08
2019-05-26T01:15:00.164Z,11.05
2019-05-26T01:15:29.237Z,11.07
2019-05-26T01:15:59.367Z,11.03
2019-05-26T01:16:29.237Z,11.03
2019-05-26T01:16:59.315Z,11.01
2019-05-26T01:17:29.240Z,11.01
2019-05-26T01:18:02.289Z,10.98
2019-05-26T01:18:29.233Z,10.96
2019-05-26T01:18:59.294Z,10.95
2019-05-26T01:19:29.236Z,10.95
2019-05-26T01:19:59.338Z,10.94
2019-05-26T01:20:29.234Z,10.95
2019-05-26T01:20:59.304Z,10.92
2019-05-26T01:21:29.237Z,10.94
2019-05-26T01:21:59.302Z,10.92
2019-05-26T01:22:29.241Z,10.90
2019-05-26T01:22:59.294Z,10.87
2019-05-26T01:23:29.283Z,10.87
2019-05-26T01:23:59.301Z,10.90
2019-05-26T01:24:29.246Z,10.90
2019-05-26T01:24:59.300Z,10.87
2019-05-26T01:25:30.142Z,10.88
2019-05-26T01:25:59.301Z,10.88
2019-05-26T01:26:29.261Z,10.87
2019-05-26T01:26:59.300Z,10.87
2019-05-26T01:27:29.243Z,10.87
2019-05-26T01:27:59.303Z,10.85
2019-05-26T01:28:32.250Z,10.85
2019-05-26T01:28:59.295Z,10.87
2019-05-26T01:29:29.245Z,10.87
2019-05-26T01:29:59.307Z,10.85
2019-05-26T01:30:29.299Z,10.84
2019-05-26T01:30:59.304Z,10.85
2019-05-26T01:31:29.245Z,10.84
2019-05-26T01:31:59.305Z,10.85
2019-05-26T01:32:29.261Z,10.82
2019-05-26T01:32:59.299Z,10.85
2019-05-26T01:33:29.245Z,10.85
2019-05-26T01:33:59.320Z,10.82
2019-05-26T01:34:29.306Z,10.84
2019-05-26T01:34:59.311Z,10.84
2019-05-26T01:35:29.241Z,10.84
2019-05-26T01:36:00.216Z,10.84
2019-05-26T01:36:29.278Z,10.84
2019-05-26T01:36:59.331Z,10.85
2019-05-26T01:37:29.245Z,10.84
2019-05-26T01:37:59.363Z,10.87
2019-05-26T01:38:29.239Z,10.87
2019-05-26T01:39:02.554Z,10.88
2019-05-26T01:39:29.248Z,10.88
2019-05-26T01:39:59.303Z,10.88
2019-05-26T01:40:29.250Z,10.88
2019-05-26T01:40:59.384Z,10.90
2019-05-26T01:41:29.256Z,10.88
2019-05-26T01:41:59.309Z,10.87
2019-05-26T01:42:29.250Z,10.90
2019-05-26T01:42:59.315Z,10.90
2019-05-26T01:43:29.244Z,10.88
2019-05-26T01:43:59.307Z,10.90
2019-05-26T01:44:29.290Z,10.90
2019-05-26T01:44:59.307Z,10.88
2019-05-26T01:45:29.247Z,10.90
2019-05-26T01:45:59.307Z,10.91
2019-05-26T01:46:30.264Z,10.94
2019-05-26T01:46:59.316Z,10.95
2019-05-26T01:47:29.245Z,10.95
2019-05-26T01:47:59.310Z,10.99
2019-05-26T01:48:29.266Z,11.01
2019-05-26T01:48:59.305Z,11.03
2019-05-26T01:49:32.262Z,11.05
2019-05-26T01:49:59.329Z,11.05
2019-05-26T01:50:29.251Z,11.08
2019-05-26T01:50:59.303Z,11.12
2019-05-26T01:51:29.247Z,11.12
2019-05-26T01:51:59.304Z,11.14
2019-05-26T01:52:29.245Z,11.11
2019-05-26T01:52:59.307Z,11.12
2019-05-26T01:53:29.305Z,11.14
2019-05-26T01:53:59.306Z,11.12
2019-05-26T01:54:29.246Z,11.12
2019-05-26T01:54:59.363Z,11.12
2019-05-26T01:55:29.250Z,11.12
2019-05-26T01:55:59.305Z,11.09
2019-05-26T01:56:29.247Z,11.08
2019-05-26T01:57:00.181Z,11.03
2019-05-26T01:57:29.259Z,11.05
2019-05-26T01:57:59.308Z,11.05
2019-05-26T01:58:29.245Z,11.01
2019-05-26T01:58:59.311Z,11.01
2019-05-26T01:59:29.264Z,10.99
2019-05-26T02:00:02.350Z,10.95
2019-05-26T02:00:29.256Z,10.96
2019-05-26T02:00:59.313Z,10.92
2019-05-26T02:01:29.251Z,10.92
2019-05-26T02:01:59.382Z,10.94
2019-05-26T02:02:29.249Z,10.90
2019-05-26T02:02:59.390Z,10.88
2019-05-26T02:03:29.249Z,10.87
2019-05-26T02:03:59.413Z,10.87
2019-05-26T02:04:29.249Z,10.85
2019-05-26T02:04:59.312Z,10.85
2019-05-26T02:05:29.270Z,10.84
2019-05-26T02:05:59.367Z,10.81
2019-05-26T02:06:29.247Z,10.82
2019-05-26T02:06:59.382Z,10.82
2019-05-26T02:07:30.209Z,10.80
2019-05-26T02:07:59.326Z,10.77
2019-05-26T02:08:38.670Z,10.77
2019-05-26T02:08:59.311Z,10.77
2019-05-26T02:09:29.398Z,10.74
2019-05-26T02:09:59.308Z,10.75
2019-05-26T02:10:32.276Z,10.74
2019-05-26T02:10:59.315Z,10.72
2019-05-26T02:11:29.267Z,10.72
2019-05-26T02:11:59.313Z,10.71
2019-05-26T02:12:29.267Z,10.71
2019-05-26T02:12:59.314Z,10.70
2019-05-26T02:13:29.273Z,10.70
2019-05-26T02:13:59.317Z,10.70
2019-05-26T02:14:29.250Z,10.67
2019-05-26T02:14:59.311Z,10.67
2019-05-26T02:15:29.245Z,10.65
2019-05-26T02:15:59.346Z,10.67
2019-05-26T02:16:29.263Z,10.68
2019-05-26T02:16:59.318Z,10.67
2019-05-26T02:17:29.255Z,10.65
2019-05-26T02:18:00.278Z,10.65
2019-05-26T02:18:29.251Z,10.67
2019-05-26T02:18:59.315Z,10.67
2019-05-26T02:19:29.251Z,10.64
2019-05-26T02:19:59.308Z,10.64
2019-05-26T02:20:29.261Z,10.63
2019-05-26T02:21:02.316Z,10.61
2019-05-26T02:21:29.252Z,10.61
2019-05-26T02:21:59.321Z,10.63
2019-05-26T02:22:29.310Z,10.61
2019-05-26T02:22:59.317Z,10.60
2019-05-26T02:23:29.257Z,10.59
2019-05-26T02:23:59.315Z,10.60
2019-05-26T02:24:29.269Z,10.59
2019-05-26T02:24:59.308Z,10.57
2019-05-26T02:25:29.258Z,10.60
2019-05-26T02:25:59.311Z,10.59
2019-05-26T02:26:29.314Z,10.60
2019-05-26T02:26:59.324Z,10.59
2019-05-26T02:27:29.260Z,10.61
2019-05-26T02:27:59.318Z,10.59
2019-05-26T02:28:30.253Z,10.59
2019-05-26T02:28:59.403Z,10.57
2019-05-26T02:29:29.262Z,10.59
2019-05-26T02:29:59.324Z,10.61
2019-05-26T02:30:29.296Z,10.60
2019-05-26T02:30:59.348Z,10.60
2019-05-26T02:31:32.264Z,10.61
2019-05-26T02:31:59.318Z,10.57
2019-05-26T02:32:29.258Z,10.63
2019-05-26T02:32:59.382Z,10.60
2019-05-26T02:33:29.257Z,10.61
2019-05-26T02:33:59.318Z,10.61
2019-05-26T02:34:29.253Z,10.61
2019-05-26T02:34:59.353Z,10.61
2019-05-26T02:35:29.250Z,10.65
2019-05-26T02:35:59.323Z,10.65
2019-05-26T02:36:29.256Z,10.65
2019-05-26T02:36:59.355Z,10.67
2019-05-26T02:37:29.262Z,10.65
2019-05-26T02:37:59.318Z,10.65
2019-05-26T02:38:29.275Z,10.67
2019-05-26T02:39:02.938Z,10.70
2019-05-26T02:39:29.261Z,10.71
2019-05-26T02:39:59.317Z,10.70
2019-05-26T02:40:29.269Z,10.71
2019-05-26T02:40:59.318Z,10.72
2019-05-26T02:41:29.269Z,10.71
2019-05-26T02:42:02.545Z,10.74
2019-05-26T02:42:29.271Z,10.75
2019-05-26T02:42:59.323Z,10.77
2019-05-26T02:43:29.361Z,10.80
2019-05-26T02:43:59.321Z,10.81
2019-05-26T02:44:29.261Z,10.82
2019-05-26T02:44:59.661Z,10.82
2019-05-26T02:45:29.323Z,10.87
2019-05-26T02:45:59.316Z,10.87
2019-05-26T02:46:29.263Z,10.88
2019-05-26T02:46:59.321Z,10.90
2019-05-26T02:47:29.366Z,10.91
2019-05-26T02:47:59.321Z,10.91
2019-05-26T02:48:29.265Z,10.90
2019-05-26T02:48:59.331Z,10.94
2019-05-26T02:49:30.103Z,10.94
2019-05-26T02:49:59.331Z,10.95
2019-05-26T02:50:29.267Z,10.94
2019-05-26T02:50:59.319Z,10.95
2019-05-26T02:51:29.260Z,10.92
2019-05-26T02:51:59.331Z,10.94
2019-05-26T02:52:32.287Z,10.94
2019-05-26T02:52:59.317Z,10.95
2019-05-26T02:53:29.261Z,10.95
2019-05-26T02:53:59.326Z,10.94
2019-05-26T02:54:29.269Z,10.94
2019-05-26T02:54:59.328Z,10.95
2019-05-26T02:55:29.264Z,10.95
2019-05-26T02:55:59.364Z,10.98
2019-05-26T02:56:29.262Z,10.98
2019-05-26T02:56:59.318Z,10.99
2019-05-26T02:57:29.272Z,10.99
2019-05-26T02:57:59.381Z,11.01
2019-05-26T02:58:29.274Z,11.03
2019-05-26T02:58:59.328Z,11.02
2019-05-26T02:59:29.266Z,11.03
2019-05-26T03:00:00.125Z,11.03
2019-05-26T03:00:29.378Z,11.08
2019-05-26T03:00:59.331Z,11.08
2019-05-26T03:01:29.268Z,11.08
2019-05-26T03:02:03.506Z,11.08
2019-05-26T03:02:29.261Z,11.09
2019-05-26T03:03:02.280Z,11.09
2019-05-26T03:03:29.381Z,11.08
2019-05-26T03:03:59.332Z,11.11
2019-05-26T03:04:29.266Z,11.08
2019-05-26T03:04:59.329Z,11.09
2019-05-26T03:05:29.263Z,11.09
2019-05-26T03:05:59.330Z,11.11
2019-05-26T03:06:29.264Z,11.09
2019-05-26T03:06:59.341Z,11.11
2019-05-26T03:07:29.280Z,11.11
2019-05-26T03:07:59.327Z,11.14
2019-05-26T03:08:29.292Z,11.15
2019-05-26T03:08:59.329Z,11.15
2019-05-26T03:09:29.268Z,11.19
2019-05-26T03:09:59.325Z,11.18
2019-05-26T03:10:30.078Z,11.18
2019-05-26T03:10:59.320Z,11.19
2019-05-26T03:11:29.273Z,11.21
2019-05-26T03:11:59.323Z,11.18
2019-05-26T03:12:29.314Z,11.18
2019-05-26T03:12:59.342Z,11.17
2019-05-26T03:13:32.324Z,11.18
2019-05-26T03:13:59.330Z,11.19
2019-05-26T03:14:29.324Z,11.19
2019-05-26T03:14:59.331Z,11.19
2019-05-26T03:15:29.265Z,11.19
2019-05-26T03:15:59.335Z,11.18
2019-05-26T03:16:29.286Z,11.17
2019-05-26T03:16:59.326Z,11.18
2019-05-26T03:17:29.283Z,11.19
2019-05-26T03:17:59.330Z,11.19
2019-05-26T03:18:29.271Z,11.18
2019-05-26T03:18:59.506Z,11.19
2019-05-26T03:19:29.272Z,11.21
2019-05-26T03:19:59.335Z,11.22
2019-05-26T03:20:29.290Z,11.23
2019-05-26T03:21:00.221Z,11.21
2019-05-26T03:21:29.272Z,11.23
2019-05-26T03:21:59.333Z,11.21
2019-05-26T03:22:29.269Z,11.22
2019-05-26T03:22:59.341Z,11.22
2019-05-26T03:23:29.271Z,11.25
2019-05-26T03:24:02.585Z,11.26
2019-05-26T03:24:29.280Z,11.21
2019-05-26T03:24:59.396Z,11.23
2019-05-26T03:25:29.273Z,11.23
2019-05-26T03:25:59.337Z,11.26
2019-05-26T03:26:29.271Z,11.26
2019-05-26T03:26:59.391Z,11.25
2019-05-26T03:27:29.274Z,11.25
2019-05-26T03:27:59.336Z,11.26
2019-05-26T03:28:29.274Z,11.28
2019-05-26T03:28:59.336Z,11.25
2019-05-26T03:29:29.311Z,11.28
2019-05-26T03:29:59.335Z,11.26
2019-05-26T03:30:29.275Z,11.26
2019-05-26T03:30:59.334Z,11.28
2019-05-26T03:31:30.120Z,11.25
2019-05-26T03:31:59.363Z,11.26
2019-05-26T03:32:29.270Z,11.26
2019-05-26T03:32:59.346Z,11.25
2019-05-26T03:33:29.446Z,11.28
2019-05-26T03:33:59.338Z,11.30
2019-05-26T03:34:32.290Z,11.29
2019-05-26T03:34:59.338Z,11.28
2019-05-26T03:35:29.395Z,11.28
2019-05-26T03:35:59.334Z,11.26
2019-05-26T03:36:29.267Z,11.26
2019-05-26T03:36:59.335Z,11.26
2019-05-26T03:37:29.276Z,11.26
2019-05-26T03:37:59.332Z,11.28
2019-05-26T03:38:29.273Z,11.26
2019-05-26T03:38:59.334Z,11.23
2019-05-26T03:39:43.011Z,11.23
2019-05-26T03:39:59.337Z,11.23
2019-05-26T03:40:29.277Z,11.23
2019-05-26T03:40:59.340Z,11.23
2019-05-26T03:41:29.319Z,11.23
2019-05-26T03:42:00.164Z,11.22
2019-05-26T03:42:29.277Z,11.21
2019-05-26T03:42:59.330Z,11.23
2019-05-26T03:43:29.276Z,11.22
2019-05-26T03:43:59.348Z,11.22
2019-05-26T03:44:29.278Z,11.19
2019-05-26T03:45:02.119Z,11.22
2019-05-26T03:45:29.386Z,11.19
2019-05-26T03:45:59.441Z,11.21
2019-05-26T03:46:29.282Z,11.18
2019-05-26T03:46:59.352Z,11.19
2019-05-26T03:47:29.281Z,11.17
2019-05-26T03:47:59.340Z,11.17
2019-05-26T03:48:29.282Z,11.14
2019-05-26T03:48:59.344Z,11.15
2019-05-26T03:49:29.279Z,11.12
2019-05-26T03:49:59.403Z,11.12
2019-05-26T03:50:29.332Z,11.09
2019-05-26T03:50:59.345Z,11.09
2019-05-26T03:51:29.276Z,11.09
2019-05-26T03:51:59.362Z,11.09
2019-05-26T03:52:30.207Z,11.09
2019-05-26T03:52:59.338Z,11.11
2019-05-26T03:53:29.271Z,11.11
2019-05-26T03:53:59.334Z,11.09
2019-05-26T03:54:29.282Z,11.09
2019-05-26T03:54:59.341Z,11.08
2019-05-26T03:55:32.136Z,11.09
2019-05-26T03:55:59.338Z,11.07
2019-05-26T03:56:29.282Z,11.07
2019-05-26T03:56:59.345Z,11.05
2019-05-26T03:57:29.302Z,11.07
2019-05-26T03:57:59.337Z,11.05
2019-05-26T03:58:29.285Z,11.05
2019-05-26T03:58:59.348Z,11.03
2019-05-26T03:59:29.283Z,11.05
2019-05-26T03:59:59.350Z,11.03
2019-05-26T04:00:29.274Z,11.01
2019-05-26T04:00:59.378Z,11.01
2019-05-26T04:01:29.286Z,11.01
2019-05-26T04:01:59.343Z,11.03
2019-05-26T04:02:29.381Z,11.01
2019-05-26T04:03:00.223Z,11.02
2019-05-26T04:03:29.285Z,11.03
2019-05-26T04:03:59.343Z,11.03
2019-05-26T04:04:29.345Z,11.05
2019-05-26T04:04:59.339Z,11.01
2019-05-26T04:05:29.280Z,11.01
2019-05-26T04:06:02.252Z,11.01
2019-05-26T04:06:29.310Z,11.02
2019-05-26T04:06:59.353Z,11.03
2019-05-26T04:07:29.287Z,11.05
2019-05-26T04:08:03.883Z,11.07
2019-05-26T04:08:29.290Z,11.05
2019-05-26T04:08:59.350Z,11.07
2019-05-26T04:09:29.306Z,11.08
2019-05-26T04:10:04.981Z,11.08
2019-05-26T04:10:29.303Z,11.07
2019-05-26T04:10:59.361Z,11.08
2019-05-26T04:11:29.496Z,11.05
2019-05-26T04:11:59.347Z,11.03
2019-05-26T04:12:29.285Z,11.03
2019-05-26T04:12:59.342Z,11.05
2019-05-26T04:13:30.081Z,11.05
2019-05-26T04:13:59.350Z,11.08
2019-05-26T04:14:29.287Z,11.05
2019-05-26T04:14:59.436Z,11.07
2019-05-26T04:15:29.290Z,11.07
2019-05-26T04:15:59.348Z,11.05
2019-05-26T04:16:32.263Z,11.03
2019-05-26T04:16:59.481Z,11.05
2019-05-26T04:17:29.287Z,11.02
2019-05-26T04:17:59.343Z,11.01
2019-05-26T04:18:29.294Z,11.02
2019-05-26T04:18:59.354Z,11.02
2019-05-26T04:19:29.285Z,11.01
2019-05-26T04:19:59.350Z,11.02
2019-05-26T04:20:29.286Z,11.02
2019-05-26T04:20:59.353Z,11.03
2019-05-26T04:21:29.291Z,11.02
2019-05-26T04:21:59.385Z,11.02
2019-05-26T04:22:29.284Z,11.01
2019-05-26T04:22:59.344Z,11.02
2019-05-26T04:23:29.288Z,11.01
2019-05-26T04:24:00.205Z,10.99
2019-05-26T04:24:29.289Z,10.96
2019-05-26T04:24:59.346Z,10.99
2019-05-26T04:25:29.286Z,10.98
2019-05-26T04:25:59.345Z,10.99
2019-05-26T04:26:29.281Z,11.02
2019-05-26T04:27:02.245Z,11.01
2019-05-26T04:27:29.402Z,11.03
2019-05-26T04:27:59.349Z,11.03
2019-05-26T04:28:29.294Z,11.08
2019-05-26T04:28:59.352Z,11.05
2019-05-26T04:29:29.342Z,11.08
2019-05-26T04:29:59.350Z,11.07
2019-05-26T04:30:29.289Z,11.08
2019-05-26T04:30:59.365Z,11.11
2019-05-26T04:31:29.364Z,11.11
2019-05-26T04:32:02.019Z,11.11
2019-05-26T04:32:29.308Z,11.09
2019-05-26T04:32:59.349Z,11.07
2019-05-26T04:33:29.346Z,11.09
2019-05-26T04:33:59.354Z,11.05
2019-05-26T04:34:30.087Z,11.07
2019-05-26T04:34:59.350Z,11.02
2019-05-26T04:35:29.307Z,10.99
2019-05-26T04:35:59.345Z,10.99
2019-05-26T04:36:29.299Z,10.99
2019-05-26T04:36:59.349Z,11.02
2019-05-26T04:37:32.300Z,10.98
2019-05-26T04:37:59.450Z,10.98
2019-05-26T04:38:29.289Z,10.96
2019-05-26T04:38:59.352Z,10.96
2019-05-26T04:39:29.283Z,10.99
2019-05-26T04:39:59.482Z,10.96
2019-05-26T04:40:29.294Z,10.95
2019-05-26T04:40:59.350Z,10.98
2019-05-26T04:41:29.287Z,10.98
2019-05-26T04:41:59.406Z,10.99
2019-05-26T04:42:29.299Z,10.99
2019-05-26T04:42:59.389Z,11.01
2019-05-26T04:43:29.290Z,11.02
2019-05-26T04:43:59.434Z,11.05
2019-05-26T04:44:29.299Z,11.03
2019-05-26T04:45:00.236Z,11.05
2019-05-26T04:45:29.298Z,11.07
2019-05-26T04:45:59.360Z,11.09
2019-05-26T04:46:29.296Z,11.08
2019-05-26T04:46:59.355Z,11.09
2019-05-26T04:47:29.294Z,11.12
2019-05-26T04:48:02.272Z,11.12
2019-05-26T04:48:29.318Z,11.11
2019-05-26T04:48:59.349Z,11.14
2019-05-26T04:49:29.295Z,11.15
2019-05-26T04:49:59.362Z,11.17
2019-05-26T04:50:29.294Z,11.17
2019-05-26T04:50:59.353Z,11.18
2019-05-26T04:51:29.291Z,11.19
2019-05-26T04:51:59.351Z,11.21
2019-05-26T04:52:29.290Z,11.18
2019-05-26T04:53:06.466Z,11.18
2019-05-26T04:53:29.306Z,11.17
2019-05-26T04:53:59.365Z,11.18
2019-05-26T04:54:29.395Z,11.19
2019-05-26T04:54:59.353Z,11.18
2019-05-26T04:55:30.206Z,11.18
2019-05-26T04:55:59.355Z,11.18
2019-05-26T04:56:29.313Z,11.19
2019-05-26T04:56:59.358Z,11.19
2019-05-26T04:57:29.294Z,11.21
2019-05-26T04:57:59.360Z,11.21
2019-05-26T04:58:32.357Z,11.21
2019-05-26T04:58:59.352Z,11.25
2019-05-26T04:59:29.295Z,11.25
2019-05-26T04:59:59.351Z,11.21
2019-05-26T05:00:29.289Z,11.19
2019-05-26T05:00:59.358Z,11.21
2019-05-26T05:01:29.300Z,11.21
2019-05-26T05:01:59.360Z,11.21
2019-05-26T05:02:29.303Z,11.22
2019-05-26T05:02:59.454Z,11.22
2019-05-26T05:03:29.301Z,11.23
2019-05-26T05:03:59.355Z,11.25
2019-05-26T05:04:29.300Z,11.25
2019-05-26T05:04:59.474Z,11.25
2019-05-26T05:05:29.300Z,11.26
2019-05-26T05:06:00.234Z,11.25
2019-05-26T05:06:29.298Z,11.22
2019-05-26T05:06:59.358Z,11.25
2019-05-26T05:07:29.300Z,11.22
2019-05-26T05:07:59.366Z,11.23
2019-05-26T05:08:29.301Z,11.19
2019-05-26T05:09:02.382Z,11.18
2019-05-26T05:09:29.307Z,11.21
2019-05-26T05:09:59.355Z,11.19
2019-05-26T05:10:41.615Z,11.22
2019-05-26T05:10:59.353Z,11.22
2019-05-26T05:11:29.299Z,11.22
2019-05-26T05:11:59.355Z,11.23
2019-05-26T05:12:29.293Z,11.23
2019-05-26T05:12:59.357Z,11.22
2019-05-26T05:13:29.303Z,11.19
2019-05-26T05:13:59.517Z,11.19
2019-05-26T05:14:29.303Z,11.19
2019-05-26T05:14:59.352Z,11.21
2019-05-26T05:15:29.304Z,11.21
2019-05-26T05:15:59.358Z,11.21
2019-05-26T05:16:30.088Z,11.21
2019-05-26T05:16:59.366Z,11.22
2019-05-26T05:17:29.311Z,11.23
2019-05-26T05:17:59.436Z,11.23
2019-05-26T05:18:29.298Z,11.26
2019-05-26T05:18:59.365Z,11.28
2019-05-26T05:19:32.322Z,11.28
2019-05-26T05:19:59.360Z,11.28
2019-05-26T05:20:29.300Z,11.28
2019-05-26T05:20:59.361Z,11.32
2019-05-26T05:21:29.324Z,11.30
2019-05-26T05:21:59.374Z,11.35
2019-05-26T05:22:29.303Z,11.35
2019-05-26T05:22:59.372Z,11.33
2019-05-26T05:23:29.333Z,11.33
2019-05-26T05:23:59.373Z,11.35
2019-05-26T05:24:29.306Z,11.35
2019-05-26T05:24:59.359Z,11.37
2019-05-26T05:25:29.300Z,11.40
2019-05-26T05:25:59.367Z,11.37
2019-05-26T05:26:29.302Z,11.37
2019-05-26T05:27:00.162Z,11.37
2019-05-26T05:27:29.300Z,11.36
2019-05-26T05:27:59.369Z,11.40
2019-05-26T05:28:29.300Z,11.40
2019-05-26T05:28:59.357Z,11.42
2019-05-26T05:29:29.326Z,11.39
2019-05-26T05:30:02.266Z,11.42
2019-05-26T05:30:29.301Z,11.42
2019-05-26T05:30:59.369Z,11.42
2019-05-26T05:31:29.307Z,11.43
2019-05-26T05:31:59.458Z,11.43
2019-05-26T05:32:32.585Z,11.42
2019-05-26T05:32:59.370Z,11.43
2019-05-26T05:33:29.304Z,11.45
2019-05-26T05:33:59.359Z,11.45
2019-05-26T05:34:29.309Z,11.40
2019-05-26T05:34:59.365Z,11.40
2019-05-26T05:35:29.318Z,11.42
2019-05-26T05:35:59.401Z,11.37
2019-05-26T05:36:29.301Z,11.39
2019-05-26T05:36:59.373Z,11.39
2019-05-26T05:37:30.139Z,11.39
2019-05-26T05:37:59.389Z,11.36
2019-05-26T05:38:29.315Z,11.39
2019-05-26T05:38:59.374Z,11.37
2019-05-26T05:39:29.306Z,11.42
2019-05-26T05:39:59.366Z,11.40
2019-05-26T05:40:32.300Z,11.42
2019-05-26T05:41:00.428Z,11.43
2019-05-26T05:41:29.303Z,11.43
2019-05-26T05:41:59.368Z,11.45
2019-05-26T05:42:29.301Z,11.45
2019-05-26T05:42:59.367Z,11.47
2019-05-26T05:43:29.308Z,11.47
2019-05-26T05:43:59.367Z,11.49
2019-05-26T05:44:29.308Z,11.47
2019-05-26T05:44:59.384Z,11.47
2019-05-26T05:45:29.301Z,11.51
2019-05-26T05:45:59.363Z,11.51
2019-05-26T05:46:29.364Z,11.54
2019-05-26T05:46:59.401Z,11.54
2019-05-26T05:47:29.315Z,11.58
2019-05-26T05:48:00.289Z,11.60
2019-05-26T05:48:29.313Z,11.58
2019-05-26T05:48:59.360Z,11.60
2019-05-26T05:49:29.305Z,11.61
2019-05-26T05:49:59.500Z,11.61
2019-05-26T05:50:29.310Z,11.66
2019-05-26T05:51:02.274Z,11.67
2019-05-26T05:51:29.335Z,11.68
2019-05-26T05:51:59.375Z,11.67
2019-05-26T05:52:29.305Z,11.68
2019-05-26T05:52:59.370Z,11.67
2019-05-26T05:53:29.304Z,11.68
2019-05-26T05:53:59.377Z,11.70
2019-05-26T05:54:29.329Z,11.70
2019-05-26T05:54:59.408Z,11.70
2019-05-26T05:55:29.314Z,11.71
2019-05-26T05:55:59.368Z,11.67
2019-05-26T05:56:29.303Z,11.70
2019-05-26T05:56:59.488Z,11.67
2019-05-26T05:57:29.310Z,11.67
2019-05-26T05:57:59.440Z,11.67
2019-05-26T05:58:30.180Z,11.67
2019-05-26T05:58:59.436Z,11.66
2019-05-26T05:59:29.316Z,11.67
2019-05-26T05:59:59.371Z,11.67
2019-05-26T06:00:29.316Z,11.71
2019-05-26T06:00:59.420Z,11.71
2019-05-26T06:01:32.332Z,11.71
2019-05-26T06:01:59.367Z,11.71
2019-05-26T06:02:29.310Z,11.71
2019-05-26T06:02:59.374Z,11.70
2019-05-26T06:03:29.308Z,11.73
2019-05-26T06:03:59.372Z,11.70
2019-05-26T06:04:29.320Z,11.74
2019-05-26T06:04:59.368Z,11.77
2019-05-26T06:05:29.367Z,11.78
2019-05-26T06:05:59.401Z,11.78
2019-05-26T06:06:29.308Z,11.80
2019-05-26T06:06:59.370Z,11.84
2019-05-26T06:07:29.311Z,11.87
2019-05-26T06:07:59.384Z,11.87
2019-05-26T06:08:29.313Z,11.93
2019-05-26T06:09:00.152Z,11.91
2019-05-26T06:09:29.308Z,11.94
2019-05-26T06:09:59.373Z,11.97
2019-05-26T06:10:29.311Z,11.98
2019-05-26T06:11:15.211Z,12.02
2019-05-26T06:11:29.317Z,12.02
2019-05-26T06:12:02.301Z,12.04
2019-05-26T06:12:29.426Z,12.04
2019-05-26T06:12:59.370Z,12.00
2019-05-26T06:13:29.317Z,12.04
2019-05-26T06:13:59.367Z,12.02
2019-05-26T06:14:29.313Z,12.04
2019-05-26T06:14:59.376Z,12.06
2019-05-26T06:15:29.312Z,12.09
2019-05-26T06:15:59.373Z,12.09
2019-05-26T06:16:29.316Z,12.05
2019-05-26T06:16:59.383Z,12.06
2019-05-26T06:17:29.355Z,12.06
2019-05-26T06:17:59.368Z,12.08
2019-05-26T06:18:29.321Z,12.09
2019-05-26T06:18:59.378Z,12.09
2019-05-26T06:19:30.117Z,12.14
2019-05-26T06:19:59.380Z,12.18
2019-05-26T06:20:29.316Z,12.18
2019-05-26T06:20:59.377Z,12.18
2019-05-26T06:21:29.351Z,12.19
2019-05-26T06:21:59.404Z,12.21
2019-05-26T06:22:32.296Z,12.23
2019-05-26T06:22:59.380Z,12.21
2019-05-26T06:23:29.322Z,12.25
2019-05-26T06:23:59.450Z,12.21
2019-05-26T06:24:29.319Z,12.19
2019-05-26T06:24:59.378Z,12.21
2019-05-26T06:25:29.322Z,12.21
2019-05-26T06:25:59.449Z,12.18
2019-05-26T06:26:29.317Z,12.16